Still Pond, Maryland
Current Conditions -  °F | °C
As of 8:58 AM on Thursday 29 Jan 2015 (Local Time) from KAPG Reporting Station
Broken Clouds Broken Clouds  
Wind Chill: 28°   Ceiling: 20000
Heat Index: 28°   Visibility: 7mi
Dew Point: 12°   Wind: 0mph
Humidity: 51%   Direction: NA
Pressure: 30.32"   Gusts: NA
Location:  39.33°N, 76.04°W
Report Text: KAPG 291358Z 00000KT 7SM BKN200 M02/M11 A3032
Loading
Personal Weather Stations






























Interactive Weather Map New forecast layout! Learn more

10-Day Weather Forecast

Advertisements
Track Severe Weather on mobile